sensor_id;sensor_type;location;lat;lon;timestamp;temperature;humidity
12622;DHT22;6376;48.182;-1.644;2023-05-07T00:01:00;16.50;92.10
12622;DHT22;6376;48.182;-1.644;2023-05-07T00:03:26;16.50;92.10
12622;DHT22;6376;48.182;-1.644;2023-05-07T00:05:52;16.50;92.10
12622;DHT22;6376;48.182;-1.644;2023-05-07T00:08:18;16.50;92.10
12622;DHT22;6376;48.182;-1.644;2023-05-07T00:10:44;16.50;92.10
12622;DHT22;6376;48.182;-1.644;2023-05-07T00:13:10;16.50;92.10
12622;DHT22;6376;48.182;-1.644;2023-05-07T00:15:35;16.50;92.00
12622;DHT22;6376;48.182;-1.644;2023-05-07T00:18:01;16.40;92.00
12622;DHT22;6376;48.182;-1.644;2023-05-07T00:20:27;16.50;92.00
12622;DHT22;6376;48.182;-1.644;2023-05-07T00:22:52;16.50;92.00
12622;DHT22;6376;48.182;-1.644;2023-05-07T00:25:18;16.50;92.00
12622;DHT22;6376;48.182;-1.644;2023-05-07T00:27:45;16.50;92.00
12622;DHT22;6376;48.182;-1.644;2023-05-07T00:30:11;16.50;92.00
12622;DHT22;6376;48.182;-1.644;2023-05-07T00:32:37;16.50;91.90
12622;DHT22;6376;48.182;-1.644;2023-05-07T00:35:04;16.50;91.90
12622;DHT22;6376;48.182;-1.644;2023-05-07T00:37:30;16.50;92.00
12622;DHT22;6376;48.182;-1.644;2023-05-07T00:39:56;16.50;92.30
12622;DHT22;6376;48.182;-1.644;2023-05-07T00:42:21;16.40;91.90
12622;DHT22;6376;48.182;-1.644;2023-05-07T00:44:47;16.50;92.00
12622;DHT22;6376;48.182;-1.644;2023-05-07T00:47:13;16.50;92.00
12622;DHT22;6376;48.182;-1.644;2023-05-07T00:49:42;16.40;91.90
12622;DHT22;6376;48.182;-1.644;2023-05-07T00:52:11;16.50;92.00
12622;DHT22;6376;48.182;-1.644;2023-05-07T00:54:38;16.50;92.00
12622;DHT22;6376;48.182;-1.644;2023-05-07T00:57:05;16.40;91.90
12622;DHT22;6376;48.182;-1.644;2023-05-07T00:59:32;16.40;92.00
12622;DHT22;6376;48.182;-1.644;2023-05-07T01:01:59;16.40;92.00
12622;DHT22;6376;48.182;-1.644;2023-05-07T01:04:25;16.40;92.00
12622;DHT22;6376;48.182;-1.644;2023-05-07T01:06:52;16.40;92.10
12622;DHT22;6376;48.182;-1.644;2023-05-07T01:09:19;16.40;92.00
12622;DHT22;6376;48.182;-1.644;2023-05-07T01:11:46;16.40;92.00
12622;DHT22;6376;48.182;-1.644;2023-05-07T01:14:12;16.40;92.00
12622;DHT22;6376;48.182;-1.644;2023-05-07T01:16:38;16.40;92.00
12622;DHT22;6376;48.182;-1.644;2023-05-07T01:19:04;16.40;92.10
12622;DHT22;6376;48.182;-1.644;2023-05-07T01:21:33;15.70;91.90
12622;DHT22;6376;48.182;-1.644;2023-05-07T01:24:00;16.30;92.00
12622;DHT22;6376;48.182;-1.644;2023-05-07T01:26:26;16.40;92.10
12622;DHT22;6376;48.182;-1.644;2023-05-07T01:28:51;16.30;92.00
12622;DHT22;6376;48.182;-1.644;2023-05-07T01:31:17;16.40;91.90
12622;DHT22;6376;48.182;-1.644;2023-05-07T01:33:44;16.40;91.90
12622;DHT22;6376;48.182;-1.644;2023-05-07T01:36:12;16.40;91.90
12622;DHT22;6376;48.182;-1.644;2023-05-07T01:38:39;16.40;91.90
12622;DHT22;6376;48.182;-1.644;2023-05-07T01:41:06;16.40;91.90
12622;DHT22;6376;48.182;-1.644;2023-05-07T01:43:32;16.40;91.90
12622;DHT22;6376;48.182;-1.644;2023-05-07T01:45:59;16.40;91.90
12622;DHT22;6376;48.182;-1.644;2023-05-07T01:48:25;16.30;91.80
12622;DHT22;6376;48.182;-1.644;2023-05-07T01:50:51;16.40;91.90
12622;DHT22;6376;48.182;-1.644;2023-05-07T01:53:17;16.40;91.80
12622;DHT22;6376;48.182;-1.644;2023-05-07T01:55:43;16.30;91.80
12622;DHT22;6376;48.182;-1.644;2023-05-07T01:58:09;16.30;91.80
12622;DHT22;6376;48.182;-1.644;2023-05-07T02:00:34;16.40;91.90
12622;DHT22;6376;48.182;-1.644;2023-05-07T02:03:00;16.40;91.90
12622;DHT22;6376;48.182;-1.644;2023-05-07T02:05:25;16.40;91.90
12622;DHT22;6376;48.182;-1.644;2023-05-07T02:07:51;16.30;91.90
12622;DHT22;6376;48.182;-1.644;2023-05-07T02:10:17;16.40;91.90
12622;DHT22;6376;48.182;-1.644;2023-05-07T02:12:42;16.40;91.90
12622;DHT22;6376;48.182;-1.644;2023-05-07T02:15:08;16.30;91.90
12622;DHT22;6376;48.182;-1.644;2023-05-07T02:17:34;16.30;91.90
12622;DHT22;6376;48.182;-1.644;2023-05-07T02:20:01;16.30;91.90
12622;DHT22;6376;48.182;-1.644;2023-05-07T02:22:26;16.30;91.90
12622;DHT22;6376;48.182;-1.644;2023-05-07T02:24:52;16.30;91.90
12622;DHT22;6376;48.182;-1.644;2023-05-07T02:27:17;16.30;91.90
12622;DHT22;6376;48.182;-1.644;2023-05-07T02:29:43;16.30;91.90
12622;DHT22;6376;48.182;-1.644;2023-05-07T02:32:08;16.40;91.90
12622;DHT22;6376;48.182;-1.644;2023-05-07T02:34:34;16.40;91.90
12622;DHT22;6376;48.182;-1.644;2023-05-07T02:37:00;16.30;91.80
12622;DHT22;6376;48.182;-1.644;2023-05-07T02:39:25;16.40;91.90
12622;DHT22;6376;48.182;-1.644;2023-05-07T02:41:51;16.30;91.80
12622;DHT22;6376;48.182;-1.644;2023-05-07T02:44:16;16.40;91.80
12622;DHT22;6376;48.182;-1.644;2023-05-07T02:46:42;16.40;91.80
12622;DHT22;6376;48.182;-1.644;2023-05-07T02:49:08;16.40;91.80
12622;DHT22;6376;48.182;-1.644;2023-05-07T02:51:33;16.40;91.90
12622;DHT22;6376;48.182;-1.644;2023-05-07T02:53:59;16.40;91.80
12622;DHT22;6376;48.182;-1.644;2023-05-07T02:56:26;16.40;91.90
12622;DHT22;6376;48.182;-1.644;2023-05-07T02:58:52;16.40;91.90
12622;DHT22;6376;48.182;-1.644;2023-05-07T03:01:18;16.30;91.80
12622;DHT22;6376;48.182;-1.644;2023-05-07T03:03:44;16.40;91.80
12622;DHT22;6376;48.182;-1.644;2023-05-07T03:06:10;16.40;91.90
12622;DHT22;6376;48.182;-1.644;2023-05-07T03:08:35;16.40;91.90
12622;DHT22;6376;48.182;-1.644;2023-05-07T03:11:02;16.30;91.80
12622;DHT22;6376;48.182;-1.644;2023-05-07T03:13:27;16.40;91.90
12622;DHT22;6376;48.182;-1.644;2023-05-07T03:15:53;16.40;91.80
12622;DHT22;6376;48.182;-1.644;2023-05-07T03:18:19;16.40;91.90
12622;DHT22;6376;48.182;-1.644;2023-05-07T03:20:44;16.40;91.70
12622;DHT22;6376;48.182;-1.644;2023-05-07T03:23:10;16.40;91.80
12622;DHT22;6376;48.182;-1.644;2023-05-07T03:25:35;16.40;91.70
12622;DHT22;6376;48.182;-1.644;2023-05-07T03:28:01;16.30;91.70
12622;DHT22;6376;48.182;-1.644;2023-05-07T03:30:27;16.40;91.70
12622;DHT22;6376;48.182;-1.644;2023-05-07T03:32:52;16.30;91.70
12622;DHT22;6376;48.182;-1.644;2023-05-07T03:35:18;16.40;91.80
12622;DHT22;6376;48.182;-1.644;2023-05-07T03:37:44;16.40;91.70
12622;DHT22;6376;48.182;-1.644;2023-05-07T03:40:10;16.30;91.70
12622;DHT22;6376;48.182;-1.644;2023-05-07T03:42:36;16.40;91.70
12622;DHT22;6376;48.182;-1.644;2023-05-07T03:45:01;16.40;91.70
12622;DHT22;6376;48.182;-1.644;2023-05-07T03:47:27;16.40;91.60
12622;DHT22;6376;48.182;-1.644;2023-05-07T03:49:53;16.40;91.70
12622;DHT22;6376;48.182;-1.644;2023-05-07T03:52:20;16.40;91.80
12622;DHT22;6376;48.182;-1.644;2023-05-07T03:54:49;16.40;91.70
12622;DHT22;6376;48.182;-1.644;2023-05-07T03:57:15;16.30;91.60
12622;DHT22;6376;48.182;-1.644;2023-05-07T03:59:40;16.30;91.70
12622;DHT22;6376;48.182;-1.644;2023-05-07T04:02:06;16.30;91.70
12622;DHT22;6376;48.182;-1.644;2023-05-07T04:04:32;16.30;91.60
12622;DHT22;6376;48.182;-1.644;2023-05-07T04:06:58;16.30;91.60
12622;DHT22;6376;48.182;-1.644;2023-05-07T04:09:24;16.30;91.60
12622;DHT22;6376;48.182;-1.644;2023-05-07T04:11:50;16.30;91.60
12622;DHT22;6376;48.182;-1.644;2023-05-07T04:14:16;16.30;91.60
12622;DHT22;6376;48.182;-1.644;2023-05-07T04:16:41;16.30;91.60
12622;DHT22;6376;48.182;-1.644;2023-05-07T04:19:07;16.30;91.60
12622;DHT22;6376;48.182;-1.644;2023-05-07T04:21:32;16.30;91.60
12622;DHT22;6376;48.182;-1.644;2023-05-07T04:23:58;16.30;91.60
12622;DHT22;6376;48.182;-1.644;2023-05-07T04:26:24;16.30;91.60
12622;DHT22;6376;48.182;-1.644;2023-05-07T04:28:49;16.30;91.60
12622;DHT22;6376;48.182;-1.644;2023-05-07T04:31:16;16.30;91.60
12622;DHT22;6376;48.182;-1.644;2023-05-07T04:33:41;16.30;91.60
12622;DHT22;6376;48.182;-1.644;2023-05-07T04:36:07;16.30;91.60
12622;DHT22;6376;48.182;-1.644;2023-05-07T04:38:33;16.30;91.60
12622;DHT22;6376;48.182;-1.644;2023-05-07T04:41:03;16.30;91.60
12622;DHT22;6376;48.182;-1.644;2023-05-07T04:43:29;16.30;91.60
12622;DHT22;6376;48.182;-1.644;2023-05-07T04:45:55;16.30;91.60
12622;DHT22;6376;48.182;-1.644;2023-05-07T04:48:20;16.30;91.60
12622;DHT22;6376;48.182;-1.644;2023-05-07T04:50:50;16.30;91.60
12622;DHT22;6376;48.182;-1.644;2023-05-07T04:53:16;16.30;91.70
12622;DHT22;6376;48.182;-1.644;2023-05-07T04:55:43;16.30;91.60
12622;DHT22;6376;48.182;-1.644;2023-05-07T04:58:09;16.30;91.70
12622;DHT22;6376;48.182;-1.644;2023-05-07T05:00:34;16.30;91.70
12622;DHT22;6376;48.182;-1.644;2023-05-07T05:03:00;16.30;91.70
12622;DHT22;6376;48.182;-1.644;2023-05-07T05:05:26;16.30;91.70
12622;DHT22;6376;48.182;-1.644;2023-05-07T05:07:51;16.30;91.60
12622;DHT22;6376;48.182;-1.644;2023-05-07T05:10:17;16.30;91.60
12622;DHT22;6376;48.182;-1.644;2023-05-07T05:12:43;16.30;91.60
12622;DHT22;6376;48.182;-1.644;2023-05-07T05:15:10;16.30;91.60
12622;DHT22;6376;48.182;-1.644;2023-05-07T05:17:36;16.30;91.70
12622;DHT22;6376;48.182;-1.644;2023-05-07T05:20:02;16.30;91.60
12622;DHT22;6376;48.182;-1.644;2023-05-07T05:22:28;16.30;91.60
12622;DHT22;6376;48.182;-1.644;2023-05-07T05:24:56;16.30;91.60
12622;DHT22;6376;48.182;-1.644;2023-05-07T05:27:22;16.30;91.60
12622;DHT22;6376;48.182;-1.644;2023-05-07T05:29:47;16.30;91.60
12622;DHT22;6376;48.182;-1.644;2023-05-07T05:32:13;16.30;91.60
12622;DHT22;6376;48.182;-1.644;2023-05-07T05:34:39;16.30;91.70
12622;DHT22;6376;48.182;-1.644;2023-05-07T05:37:04;16.30;91.60
12622;DHT22;6376;48.182;-1.644;2023-05-07T05:39:30;16.30;91.60
12622;DHT22;6376;48.182;-1.644;2023-05-07T05:41:56;16.30;91.60
12622;DHT22;6376;48.182;-1.644;2023-05-07T05:44:21;16.30;91.60
12622;DHT22;6376;48.182;-1.644;2023-05-07T05:46:47;16.30;91.60
12622;DHT22;6376;48.182;-1.644;2023-05-07T05:49:15;16.30;91.60
12622;DHT22;6376;48.182;-1.644;2023-05-07T05:51:40;16.30;91.60
12622;DHT22;6376;48.182;-1.644;2023-05-07T05:54:06;16.30;91.60
12622;DHT22;6376;48.182;-1.644;2023-05-07T05:56:31;16.30;91.60
12622;DHT22;6376;48.182;-1.644;2023-05-07T05:58:57;16.30;91.60
12622;DHT22;6376;48.182;-1.644;2023-05-07T06:01:23;16.30;91.60
12622;DHT22;6376;48.182;-1.644;2023-05-07T06:03:49;16.30;91.60
12622;DHT22;6376;48.182;-1.644;2023-05-07T06:06:14;16.30;91.60
12622;DHT22;6376;48.182;-1.644;2023-05-07T06:08:40;16.30;91.50
12622;DHT22;6376;48.182;-1.644;2023-05-07T06:11:06;16.30;91.60
12622;DHT22;6376;48.182;-1.644;2023-05-07T06:13:32;16.30;91.60
12622;DHT22;6376;48.182;-1.644;2023-05-07T06:15:58;16.30;91.60
12622;DHT22;6376;48.182;-1.644;2023-05-07T06:18:23;16.30;91.60
12622;DHT22;6376;48.182;-1.644;2023-05-07T06:20:49;16.20;91.60
12622;DHT22;6376;48.182;-1.644;2023-05-07T06:23:15;16.30;91.60
12622;DHT22;6376;48.182;-1.644;2023-05-07T06:25:40;16.30;91.60
12622;DHT22;6376;48.182;-1.644;2023-05-07T06:28:06;16.30;91.60
12622;DHT22;6376;48.182;-1.644;2023-05-07T06:30:33;16.30;91.60
12622;DHT22;6376;48.182;-1.644;2023-05-07T06:32:59;16.20;91.60
12622;DHT22;6376;48.182;-1.644;2023-05-07T06:35:25;16.30;91.60
12622;DHT22;6376;48.182;-1.644;2023-05-07T06:37:50;16.30;91.60
12622;DHT22;6376;48.182;-1.644;2023-05-07T06:40:16;16.30;91.60
12622;DHT22;6376;48.182;-1.644;2023-05-07T06:42:42;16.30;91.50
12622;DHT22;6376;48.182;-1.644;2023-05-07T06:45:08;16.30;91.60
12622;DHT22;6376;48.182;-1.644;2023-05-07T06:47:34;16.30;91.60
12622;DHT22;6376;48.182;-1.644;2023-05-07T06:49:59;16.30;91.50
12622;DHT22;6376;48.182;-1.644;2023-05-07T06:52:25;16.30;91.60
12622;DHT22;6376;48.182;-1.644;2023-05-07T06:54:51;16.30;91.60
12622;DHT22;6376;48.182;-1.644;2023-05-07T06:57:17;16.30;91.60
12622;DHT22;6376;48.182;-1.644;2023-05-07T06:59:42;16.30;91.60
12622;DHT22;6376;48.182;-1.644;2023-05-07T07:02:08;16.30;91.60
12622;DHT22;6376;48.182;-1.644;2023-05-07T07:04:34;16.30;91.60
12622;DHT22;6376;48.182;-1.644;2023-05-07T07:06:59;16.30;91.60
12622;DHT22;6376;48.182;-1.644;2023-05-07T07:09:25;16.20;91.90
12622;DHT22;6376;48.182;-1.644;2023-05-07T07:11:50;16.20;91.60
12622;DHT22;6376;48.182;-1.644;2023-05-07T07:14:16;16.30;91.60
12622;DHT22;6376;48.182;-1.644;2023-05-07T07:16:42;16.30;91.70
12622;DHT22;6376;48.182;-1.644;2023-05-07T07:19:08;16.30;91.60
12622;DHT22;6376;48.182;-1.644;2023-05-07T07:21:33;16.30;91.70
12622;DHT22;6376;48.182;-1.644;2023-05-07T07:23:59;16.20;91.60
12622;DHT22;6376;48.182;-1.644;2023-05-07T07:26:25;16.20;91.70
12622;DHT22;6376;48.182;-1.644;2023-05-07T07:28:51;16.30;91.70
12622;DHT22;6376;48.182;-1.644;2023-05-07T07:31:16;16.20;91.70
12622;DHT22;6376;48.182;-1.644;2023-05-07T07:33:42;16.20;91.70
12622;DHT22;6376;48.182;-1.644;2023-05-07T07:36:08;16.20;91.80
12622;DHT22;6376;48.182;-1.644;2023-05-07T07:38:34;16.30;91.70
12622;DHT22;6376;48.182;-1.644;2023-05-07T07:41:00;16.30;91.70
12622;DHT22;6376;48.182;-1.644;2023-05-07T07:43:26;16.30;91.80
12622;DHT22;6376;48.182;-1.644;2023-05-07T07:45:53;16.30;91.80
12622;DHT22;6376;48.182;-1.644;2023-05-07T07:48:18;16.30;91.80
12622;DHT22;6376;48.182;-1.644;2023-05-07T07:50:44;16.30;92.00
12622;DHT22;6376;48.182;-1.644;2023-05-07T07:53:10;16.30;91.90
12622;DHT22;6376;48.182;-1.644;2023-05-07T07:55:39;16.30;91.90
12622;DHT22;6376;48.182;-1.644;2023-05-07T07:58:05;16.30;91.80
12622;DHT22;6376;48.182;-1.644;2023-05-07T08:00:31;16.30;92.20
12622;DHT22;6376;48.182;-1.644;2023-05-07T08:02:56;16.50;92.20
12622;DHT22;6376;48.182;-1.644;2023-05-07T08:05:22;16.60;92.40
12622;DHT22;6376;48.182;-1.644;2023-05-07T08:07:48;16.60;92.40
12622;DHT22;6376;48.182;-1.644;2023-05-07T08:10:18;16.60;92.20
12622;DHT22;6376;48.182;-1.644;2023-05-07T08:12:49;16.60;92.40
12622;DHT22;6376;48.182;-1.644;2023-05-07T08:15:15;16.60;92.40
12622;DHT22;6376;48.182;-1.644;2023-05-07T08:17:41;16.60;92.00
12622;DHT22;6376;48.182;-1.644;2023-05-07T08:20:07;16.50;92.00
12622;DHT22;6376;48.182;-1.644;2023-05-07T08:22:34;16.50;92.20
12622;DHT22;6376;48.182;-1.644;2023-05-07T08:25:00;16.50;92.30
12622;DHT22;6376;48.182;-1.644;2023-05-07T08:27:26;16.50;92.60
12622;DHT22;6376;48.182;-1.644;2023-05-07T08:29:52;16.60;92.40
12622;DHT22;6376;48.182;-1.644;2023-05-07T08:32:17;16.60;92.50
12622;DHT22;6376;48.182;-1.644;2023-05-07T08:34:43;16.70;92.30
12622;DHT22;6376;48.182;-1.644;2023-05-07T08:37:09;16.70;92.20
12622;DHT22;6376;48.182;-1.644;2023-05-07T08:39:34;16.80;91.70
12622;DHT22;6376;48.182;-1.644;2023-05-07T08:42:00;16.80;91.80
12622;DHT22;6376;48.182;-1.644;2023-05-07T08:44:33;16.90;91.40
12622;DHT22;6376;48.182;-1.644;2023-05-07T08:47:01;16.90;91.40
12622;DHT22;6376;48.182;-1.644;2023-05-07T08:49:27;16.90;91.20
12622;DHT22;6376;48.182;-1.644;2023-05-07T08:51:53;16.90;91.40
12622;DHT22;6376;48.182;-1.644;2023-05-07T08:54:20;17.00;91.40
12622;DHT22;6376;48.182;-1.644;2023-05-07T08:56:46;17.20;90.90
12622;DHT22;6376;48.182;-1.644;2023-05-07T08:59:13;17.20;90.60
12622;DHT22;6376;48.182;-1.644;2023-05-07T09:01:39;17.50;89.70
12622;DHT22;6376;48.182;-1.644;2023-05-07T09:04:05;17.40;89.40
12622;DHT22;6376;48.182;-1.644;2023-05-07T09:06:32;17.60;88.90
12622;DHT22;6376;48.182;-1.644;2023-05-07T09:08:58;18.10;86.50
12622;DHT22;6376;48.182;-1.644;2023-05-07T09:11:26;18.90;81.60
12622;DHT22;6376;48.182;-1.644;2023-05-07T09:13:55;18.70;81.50
12622;DHT22;6376;48.182;-1.644;2023-05-07T09:16:22;18.60;81.80
12622;DHT22;6376;48.182;-1.644;2023-05-07T09:18:51;18.10;83.80
12622;DHT22;6376;48.182;-1.644;2023-05-07T09:21:18;17.80;86.10
12622;DHT22;6376;48.182;-1.644;2023-05-07T09:23:44;17.50;87.80
12622;DHT22;6376;48.182;-1.644;2023-05-07T09:26:09;17.70;87.40
12622;DHT22;6376;48.182;-1.644;2023-05-07T09:28:41;17.50;88.60
12622;DHT22;6376;48.182;-1.644;2023-05-07T09:31:08;17.40;88.70
12622;DHT22;6376;48.182;-1.644;2023-05-07T09:33:34;17.40;88.80
12622;DHT22;6376;48.182;-1.644;2023-05-07T09:36:07;17.40;88.00
12622;DHT22;6376;48.182;-1.644;2023-05-07T09:38:34;17.40;87.80
12622;DHT22;6376;48.182;-1.644;2023-05-07T09:41:08;17.40;88.10
12622;DHT22;6376;48.182;-1.644;2023-05-07T09:43:36;17.50;88.20
12622;DHT22;6376;48.182;-1.644;2023-05-07T09:46:03;17.80;87.20
12622;DHT22;6376;48.182;-1.644;2023-05-07T09:48:32;17.70;86.60
12622;DHT22;6376;48.182;-1.644;2023-05-07T09:51:02;17.50;87.10
12622;DHT22;6376;48.182;-1.644;2023-05-07T09:53:33;17.40;88.00
12622;DHT22;6376;48.182;-1.644;2023-05-07T09:55:59;17.30;88.60
12622;DHT22;6376;48.182;-1.644;2023-05-07T09:58:26;17.20;88.40
12622;DHT22;6376;48.182;-1.644;2023-05-07T10:00:52;17.20;88.90
12622;DHT22;6376;48.182;-1.644;2023-05-07T10:03:19;17.20;88.50
12622;DHT22;6376;48.182;-1.644;2023-05-07T10:05:46;17.20;89.50
12622;DHT22;6376;48.182;-1.644;2023-05-07T10:08:13;17.10;89.50
12622;DHT22;6376;48.182;-1.644;2023-05-07T10:10:42;17.20;88.80
12622;DHT22;6376;48.182;-1.644;2023-05-07T10:13:08;17.20;89.20
12622;DHT22;6376;48.182;-1.644;2023-05-07T10:15:36;17.10;89.40
12622;DHT22;6376;48.182;-1.644;2023-05-07T10:18:04;17.10;89.50
12622;DHT22;6376;48.182;-1.644;2023-05-07T10:20:33;17.10;89.10
12622;DHT22;6376;48.182;-1.644;2023-05-07T10:22:59;17.10;89.50
12622;DHT22;6376;48.182;-1.644;2023-05-07T10:25:30;17.20;89.50
12622;DHT22;6376;48.182;-1.644;2023-05-07T10:27:59;17.20;90.10
12622;DHT22;6376;48.182;-1.644;2023-05-07T10:33:24;17.20;89.80
12622;DHT22;6376;48.182;-1.644;2023-05-07T10:35:51;17.20;89.90
12622;DHT22;6376;48.182;-1.644;2023-05-07T10:38:17;17.20;89.50
12622;DHT22;6376;48.182;-1.644;2023-05-07T10:40:43;17.10;89.30
12622;DHT22;6376;48.182;-1.644;2023-05-07T10:43:09;17.20;89.10
12622;DHT22;6376;48.182;-1.644;2023-05-07T10:45:35;17.20;89.70
12622;DHT22;6376;48.182;-1.644;2023-05-07T10:48:12;17.20;89.40
12622;DHT22;6376;48.182;-1.644;2023-05-07T10:50:39;17.20;89.80
12622;DHT22;6376;48.182;-1.644;2023-05-07T10:55:47;17.10;90.00
12622;DHT22;6376;48.182;-1.644;2023-05-07T11:00:50;17.10;90.00
12622;DHT22;6376;48.182;-1.644;2023-05-07T11:03:17;17.10;89.80
12622;DHT22;6376;48.182;-1.644;2023-05-07T11:05:43;17.20;89.70
12622;DHT22;6376;48.182;-1.644;2023-05-07T11:08:09;17.30;88.40
12622;DHT22;6376;48.182;-1.644;2023-05-07T11:10:51;17.40;88.00
12622;DHT22;6376;48.182;-1.644;2023-05-07T11:13:17;17.40;87.90
12622;DHT22;6376;48.182;-1.644;2023-05-07T11:15:47;17.40;88.30
12622;DHT22;6376;48.182;-1.644;2023-05-07T11:18:15;17.40;88.00
12622;DHT22;6376;48.182;-1.644;2023-05-07T11:26:05;17.40;88.30
12622;DHT22;6376;48.182;-1.644;2023-05-07T11:28:36;17.40;88.00
12622;DHT22;6376;48.182;-1.644;2023-05-07T11:31:02;17.30;88.00
12622;DHT22;6376;48.182;-1.644;2023-05-07T11:33:29;17.40;88.20
12622;DHT22;6376;48.182;-1.644;2023-05-07T11:35:56;17.40;88.50
12622;DHT22;6376;48.182;-1.644;2023-05-07T11:38:22;17.40;88.40
12622;DHT22;6376;48.182;-1.644;2023-05-07T11:40:58;17.40;88.50
12622;DHT22;6376;48.182;-1.644;2023-05-07T11:43:30;17.30;88.50
12622;DHT22;6376;48.182;-1.644;2023-05-07T11:46:10;17.30;88.60
12622;DHT22;6376;48.182;-1.644;2023-05-07T11:48:37;17.30;88.10
12622;DHT22;6376;48.182;-1.644;2023-05-07T11:51:04;17.30;88.60
12622;DHT22;6376;48.182;-1.644;2023-05-07T11:53:41;17.30;88.60
12622;DHT22;6376;48.182;-1.644;2023-05-07T11:56:08;17.40;88.60
12622;DHT22;6376;48.182;-1.644;2023-05-07T11:58:34;17.40;88.30
12622;DHT22;6376;48.182;-1.644;2023-05-07T12:01:00;17.40;88.60
12622;DHT22;6376;48.182;-1.644;2023-05-07T12:03:25;17.30;88.50
12622;DHT22;6376;48.182;-1.644;2023-05-07T12:05:51;17.40;88.60
12622;DHT22;6376;48.182;-1.644;2023-05-07T12:08:18;17.30;88.10
12622;DHT22;6376;48.182;-1.644;2023-05-07T12:10:45;17.40;88.20
12622;DHT22;6376;48.182;-1.644;2023-05-07T12:13:21;17.30;88.50
12622;DHT22;6376;48.182;-1.644;2023-05-07T12:15:51;17.40;88.70
12622;DHT22;6376;48.182;-1.644;2023-05-07T12:18:17;17.30;88.50
12622;DHT22;6376;48.182;-1.644;2023-05-07T12:20:43;17.30;88.30
12622;DHT22;6376;48.182;-1.644;2023-05-07T12:23:09;17.30;89.10
12622;DHT22;6376;48.182;-1.644;2023-05-07T12:25:39;17.30;88.80
12622;DHT22;6376;48.182;-1.644;2023-05-07T12:28:08;17.30;89.20
12622;DHT22;6376;48.182;-1.644;2023-05-07T12:30:38;17.30;88.50
12622;DHT22;6376;48.182;-1.644;2023-05-07T12:33:04;17.30;88.60
12622;DHT22;6376;48.182;-1.644;2023-05-07T12:35:32;17.40;89.00
12622;DHT22;6376;48.182;-1.644;2023-05-07T12:38:01;17.40;88.20
12622;DHT22;6376;48.182;-1.644;2023-05-07T12:40:41;17.40;88.30
12622;DHT22;6376;48.182;-1.644;2023-05-07T12:43:07;17.40;88.00
12622;DHT22;6376;48.182;-1.644;2023-05-07T12:45:40;17.30;88.00
12622;DHT22;6376;48.182;-1.644;2023-05-07T12:48:06;17.30;88.10
12622;DHT22;6376;48.182;-1.644;2023-05-07T12:50:34;17.40;88.80
12622;DHT22;6376;48.182;-1.644;2023-05-07T12:53:00;17.30;88.40
12622;DHT22;6376;48.182;-1.644;2023-05-07T12:55:31;17.30;88.90
12622;DHT22;6376;48.182;-1.644;2023-05-07T12:58:00;17.30;89.10
12622;DHT22;6376;48.182;-1.644;2023-05-07T13:00:37;17.30;88.50
12622;DHT22;6376;48.182;-1.644;2023-05-07T13:03:03;17.30;88.20
12622;DHT22;6376;48.182;-1.644;2023-05-07T13:05:28;17.30;88.60
12622;DHT22;6376;48.182;-1.644;2023-05-07T13:07:55;17.40;88.00
12622;DHT22;6376;48.182;-1.644;2023-05-07T13:10:22;17.40;88.30
12622;DHT22;6376;48.182;-1.644;2023-05-07T13:12:48;17.40;87.60
12622;DHT22;6376;48.182;-1.644;2023-05-07T13:15:14;17.40;87.70
12622;DHT22;6376;48.182;-1.644;2023-05-07T13:17:40;17.40;87.50
12622;DHT22;6376;48.182;-1.644;2023-05-07T13:20:06;17.40;87.70
12622;DHT22;6376;48.182;-1.644;2023-05-07T13:22:34;17.40;87.90
12622;DHT22;6376;48.182;-1.644;2023-05-07T13:25:00;17.40;87.70
12622;DHT22;6376;48.182;-1.644;2023-05-07T13:27:26;17.40;87.70
12622;DHT22;6376;48.182;-1.644;2023-05-07T13:29:51;17.40;87.50
12622;DHT22;6376;48.182;-1.644;2023-05-07T13:32:17;17.50;87.40
12622;DHT22;6376;48.182;-1.644;2023-05-07T13:34:43;17.40;87.50
12622;DHT22;6376;48.182;-1.644;2023-05-07T13:37:09;17.50;87.30
12622;DHT22;6376;48.182;-1.644;2023-05-07T13:39:35;17.50;87.30
12622;DHT22;6376;48.182;-1.644;2023-05-07T13:42:00;17.50;87.30
12622;DHT22;6376;48.182;-1.644;2023-05-07T13:44:26;17.50;87.20
12622;DHT22;6376;48.182;-1.644;2023-05-07T13:46:52;17.50;87.30
12622;DHT22;6376;48.182;-1.644;2023-05-07T13:49:17;17.50;87.20
12622;DHT22;6376;48.182;-1.644;2023-05-07T13:51:43;17.50;87.30
12622;DHT22;6376;48.182;-1.644;2023-05-07T13:54:09;17.50;87.30
12622;DHT22;6376;48.182;-1.644;2023-05-07T13:56:34;17.50;87.20
12622;DHT22;6376;48.182;-1.644;2023-05-07T13:59:00;17.50;87.30
12622;DHT22;6376;48.182;-1.644;2023-05-07T14:01:26;17.50;87.30
12622;DHT22;6376;48.182;-1.644;2023-05-07T14:03:52;17.50;87.40
12622;DHT22;6376;48.182;-1.644;2023-05-07T14:06:17;17.50;87.10
12622;DHT22;6376;48.182;-1.644;2023-05-07T14:08:43;17.50;87.00
12622;DHT22;6376;48.182;-1.644;2023-05-07T14:11:09;17.50;87.20
12622;DHT22;6376;48.182;-1.644;2023-05-07T14:13:34;17.50;87.10
12622;DHT22;6376;48.182;-1.644;2023-05-07T14:16:00;17.50;87.30
12622;DHT22;6376;48.182;-1.644;2023-05-07T14:18:26;17.50;87.40
12622;DHT22;6376;48.182;-1.644;2023-05-07T14:20:54;17.50;87.30
12622;DHT22;6376;48.182;-1.644;2023-05-07T14:23:19;17.50;87.20
12622;DHT22;6376;48.182;-1.644;2023-05-07T14:25:47;17.50;87.30
12622;DHT22;6376;48.182;-1.644;2023-05-07T14:28:13;17.50;87.40
12622;DHT22;6376;48.182;-1.644;2023-05-07T14:30:39;17.50;87.70
12622;DHT22;6376;48.182;-1.644;2023-05-07T14:33:04;17.40;87.60
12622;DHT22;6376;48.182;-1.644;2023-05-07T14:35:30;17.50;87.90
12622;DHT22;6376;48.182;-1.644;2023-05-07T14:37:56;17.50;87.50
12622;DHT22;6376;48.182;-1.644;2023-05-07T14:40:21;17.50;87.90
12622;DHT22;6376;48.182;-1.644;2023-05-07T14:42:47;17.50;87.40
12622;DHT22;6376;48.182;-1.644;2023-05-07T14:45:12;17.50;87.40
12622;DHT22;6376;48.182;-1.644;2023-05-07T14:47:38;17.40;87.60
12622;DHT22;6376;48.182;-1.644;2023-05-07T14:50:04;17.50;87.60
12622;DHT22;6376;48.182;-1.644;2023-05-07T14:52:30;17.40;87.80
12622;DHT22;6376;48.182;-1.644;2023-05-07T14:54:55;17.40;87.60
12622;DHT22;6376;48.182;-1.644;2023-05-07T14:57:21;17.40;87.70
12622;DHT22;6376;48.182;-1.644;2023-05-07T14:59:47;17.40;87.60
12622;DHT22;6376;48.182;-1.644;2023-05-07T15:02:13;17.40;87.50
12622;DHT22;6376;48.182;-1.644;2023-05-07T15:04:39;17.50;87.50
12622;DHT22;6376;48.182;-1.644;2023-05-07T15:07:14;17.40;87.50
12622;DHT22;6376;48.182;-1.644;2023-05-07T15:09:43;17.50;87.50
12622;DHT22;6376;48.182;-1.644;2023-05-07T15:12:09;17.50;87.20
12622;DHT22;6376;48.182;-1.644;2023-05-07T15:14:34;17.50;87.70
12622;DHT22;6376;48.182;-1.644;2023-05-07T15:17:00;17.50;87.40
12622;DHT22;6376;48.182;-1.644;2023-05-07T15:19:26;17.50;87.50
12622;DHT22;6376;48.182;-1.644;2023-05-07T15:21:57;17.50;87.60
12622;DHT22;6376;48.182;-1.644;2023-05-07T15:24:24;17.50;87.70
12622;DHT22;6376;48.182;-1.644;2023-05-07T15:26:51;17.50;87.50
12622;DHT22;6376;48.182;-1.644;2023-05-07T15:29:17;17.40;87.70
12622;DHT22;6376;48.182;-1.644;2023-05-07T15:31:43;17.50;87.70
12622;DHT22;6376;48.182;-1.644;2023-05-07T15:34:08;17.50;87.60
12622;DHT22;6376;48.182;-1.644;2023-05-07T15:36:34;17.50;87.50
12622;DHT22;6376;48.182;-1.644;2023-05-07T15:39:00;17.50;87.50